Terminal Aerodrome Forecast
Issued by NWS

Home | Current Version | Previous Version | Graphics & Text | Print | Product List | Glossary On
Versions: 1 2 3 4 5 6 7 8 9 10 11 12 13 14 15 16 17 18 19 20 21
000
FTUS43 KBIS 310115 AAA
TAFDIK
TAF AMD
KDIK 310115Z 3101/3124 31014G22KT P6SM -RA FEW012 OVC035
     FM310300 29011KT P6SM SCT090
     FM311200 27016G24KT P6SM BKN025
     FM311500 27017G24KT P6SM -SHRA OVC020
     FM311800 30019G26KT 6SM -SHRA OVC020=

USA.gov is the U.S. government's official web portal to all federal, state and local government web resources and services.